Trading Fabrizia — 9HA2646 — position and weather

sailwx.info

Track history (hours):
 
Tides and Currents Weather Stations Pressure Air Temp Water Temp Dewpoint Dewpoint Depression Visibility Wind Speed Wind Dir Waves Ship Positions

Trading Fabrizia

Last reported at 2018-Apr-13 09:19 UTC. Time now 2018-Aug-20 16:48 UTC.
Position N 54°59' W 001°28'.
Warning: this ship's position is months out of date.

Length 180 m; draft 8.4 m.

Type: Ship. MMSI: 215120000.

Date/timePositionNaut miles runAvg speedWind from/ knotsBaromVisibWave heightAir tempDewpointWater temp
2018-Apr-13 09:19N 54°59' W 001°28'0 0.0
2018-Apr-13 09:00N 54°59' W 001°28'0 0.0
2018-Apr-13 08:25N 54°59' W 001°28'0 0.0
2018-Apr-13 08:00N 54°59' W 001°28'0 0.0
2018-Apr-13 07:30N 54°59' W 001°28'0 0.0
2018-Apr-13 07:00N 54°59' W 001°28'0 0.0
2018-Apr-13 06:30N 54°59' W 001°28'0 0.0
2018-Apr-13 06:00N 54°59' W 001°28'0 0.0
2018-Apr-13 05:30N 54°59' W 001°28'0 0.0
2018-Apr-13 05:00N 54°59' W 001°28'0 0.0
2018-Apr-13 04:30N 54°59' W 001°28'0 0.0
2018-Apr-13 04:00N 54°59' W 001°28'0 0.0
2018-Apr-13 03:30N 54°59' W 001°28'0 0.0
2018-Apr-13 03:00N 54°59' W 001°28'0 0.0
2018-Apr-13 02:30N 54°59' W 001°28'0 0.5
2018-Apr-13 02:00N 54°59' W 001°27'2 4.7
2018-Apr-13 01:30N 55°01' W 001°24'3 6.4
2018-Apr-13 01:00N 55°02' W 001°19'1 2.7
2018-Apr-13 00:30N 55°03' W 001°17'1 2.4
2018-Apr-13 00:00N 55°04' W 001°17'2 3.9
2018-Apr-12 23:30N 55°06' W 001°16'1 1.3
2018-Apr-12 23:00N 55°07' W 001°16'2 4.9
2018-Apr-12 22:30N 55°09' W 001°17'3 5.2
2018-Apr-12 22:00N 55°12' W 001°17'2 4.9
2018-Apr-12 21:30N 55°14' W 001°17'2 4.7
2018-Apr-12 21:00N 55°16' W 001°16'3 6.0
2018-Apr-12 20:30N 55°19' W 001°15'4 7.2
2018-Apr-12 20:00N 55°23' W 001°14'4 7.1
2018-Apr-12 19:30N 55°26' W 001°13'3 6.9
2018-Apr-12 19:00N 55°30' W 001°12'3 6.9
2018-Apr-12 18:30N 55°33' W 001°12'3 6.9
2018-Apr-12 18:00N 55°37' W 001°11'31 8.5
2018-Apr-12 14:21N 56°08' W 001°10'2810.1
2018-Apr-12 11:33N 56°36' W 001°10'110.8
2018-Apr-12 11:28N 56°37' W 001°10'510.8
2018-Apr-12 10:58N 56°42' W 001°10'510.9
2018-Apr-12 10:30N 56°47' W 001°10'610.9
2018-Apr-12 09:56N 56°54' W 001°10'710.9
2018-Apr-12 09:20N 57°00' W 001°10'410.8
2018-Apr-12 09:00N 57°04' W 001°10'39 9.4
2018-Apr-12 04:51N 57°41' W 001°29'3 8.7
2018-Apr-12 04:30N 57°44' W 001°32'5 8.6
2018-Apr-12 03:53N 57°48' W 001°38'3 8.8
2018-Apr-12 03:30N 57°51' W 001°42'7 9.0
2018-Apr-12 02:45N 57°56' W 001°50'44 9.0
2018-Apr-11 21:53N 58°30' W 002°42'4 9.0
2018-Apr-11 21:29N 58°33' W 002°47'5 9.8
2018-Apr-11 21:00N 58°36' W 002°52'611.7
2018-Apr-11 20:30N 58°41' W 003°00'611.8
2018-Apr-11 19:59N 58°43' W 003°11'612.0
2018-Apr-11 19:30N 58°43' W 003°22'1011.3
2018-Apr-11 18:40N 58°43' W 003°41'  
Track history (hours):
 
Tides and Currents Weather Stations Pressure Air Temp Water Temp Dewpoint Dewpoint Depression Visibility Wind Speed Wind Dir Waves Ship Positions

Trading Fabrizia

Last reported at 2018-Apr-13 09:19 UTC. Time now 2018-Aug-20 16:48 UTC.
Position N 54°59' W 001°28'.
Warning: this ship's position is months out of date.

Length 180 m; draft 8.4 m.

Type: Ship. MMSI: 215120000.

Date/timePositionNaut miles runAvg speedWind from/ knotsBaromVisibWave heightAir tempDewpointWater temp
2018-Apr-13 09:19N 54°59' W 001°28'0 0.0
2018-Apr-13 09:00N 54°59' W 001°28'0 0.0
2018-Apr-13 08:25N 54°59' W 001°28'0 0.0
2018-Apr-13 08:00N 54°59' W 001°28'0 0.0
2018-Apr-13 07:30N 54°59' W 001°28'0 0.0
2018-Apr-13 07:00N 54°59' W 001°28'0 0.0
2018-Apr-13 06:30N 54°59' W 001°28'0 0.0
2018-Apr-13 06:00N 54°59' W 001°28'0 0.0
2018-Apr-13 05:30N 54°59' W 001°28'0 0.0
2018-Apr-13 05:00N 54°59' W 001°28'0 0.0
2018-Apr-13 04:30N 54°59' W 001°28'0 0.0
2018-Apr-13 04:00N 54°59' W 001°28'0 0.0
2018-Apr-13 03:30N 54°59' W 001°28'0 0.0
2018-Apr-13 03:00N 54°59' W 001°28'0 0.0
2018-Apr-13 02:30N 54°59' W 001°28'0 0.5
2018-Apr-13 02:00N 54°59' W 001°27'2 4.7
2018-Apr-13 01:30N 55°01' W 001°24'3 6.4
2018-Apr-13 01:00N 55°02' W 001°19'1 2.7
2018-Apr-13 00:30N 55°03' W 001°17'1 2.4
2018-Apr-13 00:00N 55°04' W 001°17'2 3.9
2018-Apr-12 23:30N 55°06' W 001°16'1 1.3
2018-Apr-12 23:00N 55°07' W 001°16'2 4.9
2018-Apr-12 22:30N 55°09' W 001°17'3 5.2
2018-Apr-12 22:00N 55°12' W 001°17'2 4.9
2018-Apr-12 21:30N 55°14' W 001°17'2 4.7
2018-Apr-12 21:00N 55°16' W 001°16'3 6.0
2018-Apr-12 20:30N 55°19' W 001°15'4 7.2
2018-Apr-12 20:00N 55°23' W 001°14'4 7.1
2018-Apr-12 19:30N 55°26' W 001°13'3 6.9
2018-Apr-12 19:00N 55°30' W 001°12'3 6.9
2018-Apr-12 18:30N 55°33' W 001°12'3 6.9
2018-Apr-12 18:00N 55°37' W 001°11'31 8.5
2018-Apr-12 14:21N 56°08' W 001°10'2810.1
2018-Apr-12 11:33N 56°36' W 001°10'110.8
2018-Apr-12 11:28N 56°37' W 001°10'510.8
2018-Apr-12 10:58N 56°42' W 001°10'510.9
2018-Apr-12 10:30N 56°47' W 001°10'610.9
2018-Apr-12 09:56N 56°54' W 001°10'710.9
2018-Apr-12 09:20N 57°00' W 001°10'410.8
2018-Apr-12 09:00N 57°04' W 001°10'39 9.4
2018-Apr-12 04:51N 57°41' W 001°29'3 8.7
2018-Apr-12 04:30N 57°44' W 001°32'5 8.6
2018-Apr-12 03:53N 57°48' W 001°38'3 8.8
2018-Apr-12 03:30N 57°51' W 001°42'7 9.0
2018-Apr-12 02:45N 57°56' W 001°50'44 9.0
2018-Apr-11 21:53N 58°30' W 002°42'4 9.0
2018-Apr-11 21:29N 58°33' W 002°47'5 9.8
2018-Apr-11 21:00N 58°36' W 002°52'611.7
2018-Apr-11 20:30N 58°41' W 003°00'611.8
2018-Apr-11 19:59N 58°43' W 003°11'612.0
2018-Apr-11 19:30N 58°43' W 003°22'1011.3
2018-Apr-11 18:40N 58°43' W 003°41'  

Dump ship's entire track history